Avon Lake, Iowa
Current Conditions -  °F | °C
As of 2:54 PM on Sunday 23 Nov 2014 (Local Time) from KDSM Reporting Station
Haze Haze  
Wind Chill: 53°   Ceiling: 300
Heat Index: 53°   Visibility: 1.5mi
Dew Point: 51°   Wind: 3mph
Humidity: 93%   Direction: 190°S
Pressure: 29.34"   Gusts: NA
Location:  41.4707°N, 93.4797°W
Report Text: KDSM 232054Z 19003KT 1 1/2SM BR OVC003 12/11 A2934 RMK AO2 SFC VIS 2 SLP935 60001 T01170106 56027
Loading
Personal Weather Stations






























Interactive Weather Map New forecast layout! Learn more

10-Day Weather Forecast

Advertisements
Track Severe Weather on mobile